This is the latest recevied weather packets stored in our database for station/object NK7I. If no packets are shown the sender has not sent any weather packets the latest 10 day(s).
| Time | Temp. | Humidity | Pressure | Rain* | Wind** | Luminosity | Snow |
|---|---|---|---|---|---|---|---|
| 1777583482 | 22.22° C | 31% | 1019.5 hPa | 0 mm | - | 1187 W/m² | - |
| 1777580782 | 21.67° C | 31% | 1020 hPa | 0 mm | - | 1253 W/m² | - |
| 1777580182 | 21.11° C | 30% | 1020.1 hPa | 0 mm | - | 1262 W/m² | - |
| 1777579282 | 20.56° C | 31% | 1020.3 hPa | 0 mm | - | 1278 W/m² | - |
| 1777577782 | 19.44° C | 39% | 1020.8 hPa | 0 mm | - | 1281 W/m² | - |
| 1777577182 | 18.89° C | 43% | 1021.2 hPa | 0 mm | - | 1288 W/m² | - |
| 1777572984 | 16.11° C | 47% | 1022.5 hPa | 0 mm | - | 1209 W/m² | - |
| 1777567882 | 12.22° C | 55% | 1023.6 hPa | 0 mm | - | 986 W/m² | - |
| 1777564583 | 10.56° C | 66% | 1024 hPa | 0 mm | - | 490 W/m² | - |
| 1777563982 | 10° C | 72% | 1024.3 hPa | 0 mm | - | 548 W/m² | - |
| 1777563382 | 9.44° C | 69% | 1024.5 hPa | 0 mm | - | 573 W/m² | - |
| 1777563082 | 9.44° C | 74% | 1024.5 hPa | 0 mm | - | 524 W/m² | - |
| 1777559783 | 3.89° C | 89% | 1025.1 hPa | 0 mm | - | 77 W/m² | - |
| 1777558883 | 3.33° C | 90% | 1025.1 hPa | 0 mm | - | 111 W/m² | - |
| 1777557682 | 2.78° C | 90% | 1025 hPa | 0 mm | - | 37 W/m² | - |
| 1777557382 | 2.78° C | 90% | 1024.9 hPa | 0 mm | - | 35 W/m² | - |
| 1777554382 | 2.22° C | 88% | 1024.7 hPa | 0 mm | - | 23 W/m² | - |
| 1777552583 | 2.22° C | 89% | 1024.4 hPa | 0 mm | - | 9 W/m² | - |
| 1777551682 | 2.22° C | 89% | 1024.3 hPa | 0 mm | - | 0 W/m² | - |
| 1777550782 | 2.22° C | 88% | 1024.3 hPa | 0 mm | - | 0 W/m² | - |
| 1777549882 | 2.22° C | 86% | 1024.3 hPa | 0 mm | - | 0 W/m² | - |
| 1777548983 | 2.78° C | 87% | 1024.2 hPa | 0 mm | - | 0 W/m² | - |
| 1777548682 | 2.78° C | 87% | 1024.1 hPa | 0 mm | - | 0 W/m² | - |
| 1777548082 | 2.78° C | 87% | 1024.1 hPa | 0 mm | - | 0 W/m² | - |
| 1777545382 | 3.33° C | 86% | 1023.8 hPa | 0 mm | - | 0 W/m² | - |
* Rain latest hour (hover to see other rain measurements)
** Current wind speed in m/s (hover to see current wind gust speed)